createdAt,value
2023-03-03T00:01:35.703Z,7.80
2023-03-03T00:04:04.032Z,7.80
2023-03-03T00:06:32.487Z,7.80
2023-03-03T00:09:02.091Z,7.80
2023-03-03T00:11:30.301Z,7.80
2023-03-03T00:13:59.051Z,7.80
2023-03-03T00:16:29.781Z,7.80
2023-03-03T00:18:58.477Z,7.80
2023-03-03T00:21:30.569Z,7.80
2023-03-03T00:24:18.290Z,7.80
2023-03-03T00:26:48.325Z,7.80
2023-03-03T00:29:31.996Z,7.80
2023-03-03T00:32:17.223Z,7.80
2023-03-03T00:34:46.323Z,7.80
2023-03-03T00:37:29.231Z,7.80
2023-03-03T00:40:14.695Z,7.80
2023-03-03T00:42:45.145Z,7.80
2023-03-03T00:45:30.840Z,7.80
2023-03-03T00:48:00.179Z,7.80
2023-03-03T00:50:31.221Z,7.80
2023-03-03T00:53:07.997Z,7.80
2023-03-03T00:55:37.949Z,7.70
2023-03-03T00:58:06.359Z,7.80
2023-03-03T01:00:41.256Z,7.70
2023-03-03T01:03:15.689Z,7.70
2023-03-03T01:05:44.874Z,7.90
2023-03-03T01:08:13.756Z,7.80
2023-03-03T01:10:47.315Z,7.80
2023-03-03T01:13:15.817Z,7.70
2023-03-03T01:15:45.233Z,7.70
2023-03-03T01:18:15.579Z,7.80
2023-03-03T01:20:44.198Z,7.80
2023-03-03T01:23:13.538Z,7.70
2023-03-03T01:25:43.486Z,7.70
2023-03-03T01:28:11.930Z,7.70
2023-03-03T01:30:40.445Z,7.70
2023-03-03T01:33:08.841Z,7.70
2023-03-03T01:35:37.364Z,7.70
2023-03-03T01:38:05.599Z,7.70
2023-03-03T01:40:33.928Z,7.70
2023-03-03T01:43:06.256Z,7.60
2023-03-03T01:46:13.067Z,7.60
2023-03-03T01:48:43.770Z,7.60
2023-03-03T01:51:21.817Z,7.60
2023-03-03T01:53:54.454Z,7.60
2023-03-03T01:56:22.934Z,7.70
2023-03-03T01:58:55.340Z,7.70
2023-03-03T02:01:27.343Z,7.70
2023-03-03T02:03:56.480Z,7.70
2023-03-03T02:06:28.839Z,7.60
2023-03-03T02:09:03.670Z,7.60
2023-03-03T02:11:35.964Z,7.60
2023-03-03T02:14:06.135Z,7.60
2023-03-03T02:16:34.509Z,7.60
2023-03-03T02:19:02.826Z,7.60
2023-03-03T02:21:31.108Z,7.60
2023-03-03T02:24:05.118Z,7.60
2023-03-03T02:26:40.370Z,7.60
2023-03-03T02:29:10.718Z,7.60
2023-03-03T02:31:40.571Z,7.60
2023-03-03T02:34:09.095Z,7.60
2023-03-03T02:36:39.016Z,7.60
2023-03-03T02:39:11.943Z,7.60
2023-03-03T02:41:46.545Z,7.50
2023-03-03T02:44:16.182Z,7.60
2023-03-03T02:46:47.724Z,7.50
2023-03-03T02:49:17.582Z,7.50
2023-03-03T02:51:46.268Z,7.50
2023-03-03T02:54:17.966Z,7.50
2023-03-03T02:56:47.765Z,7.50
2023-03-03T02:59:16.966Z,7.50
2023-03-03T03:01:49.774Z,7.50
2023-03-03T03:04:22.444Z,7.50
2023-03-03T03:06:52.803Z,7.50
2023-03-03T03:09:23.131Z,7.50
2023-03-03T03:11:54.184Z,7.50
2023-03-03T03:14:26.349Z,7.50
2023-03-03T03:16:56.020Z,7.50
2023-03-03T03:19:24.346Z,7.40
2023-03-03T03:21:52.992Z,7.40
2023-03-03T03:24:22.053Z,7.40
2023-03-03T03:26:58.150Z,7.40
2023-03-03T03:29:28.822Z,7.40
2023-03-03T03:31:57.371Z,7.40
2023-03-03T03:34:25.931Z,7.40
2023-03-03T03:36:55.626Z,7.40
2023-03-03T03:39:25.781Z,7.60
2023-03-03T03:41:54.989Z,7.40
2023-03-03T03:44:25.323Z,7.40
2023-03-03T03:46:54.027Z,7.40
2023-03-03T03:49:22.710Z,7.40
2023-03-03T03:51:52.975Z,7.30
2023-03-03T03:54:25.602Z,7.30
2023-03-03T03:56:54.913Z,7.40
2023-03-03T03:59:25.620Z,7.40
2023-03-03T04:01:54.223Z,7.30
2023-03-03T04:04:23.968Z,7.60
2023-03-03T04:06:52.427Z,7.30
2023-03-03T04:09:20.814Z,7.30
2023-03-03T04:11:49.824Z,7.30
2023-03-03T04:14:19.107Z,7.00
2023-03-03T04:16:49.129Z,7.30
2023-03-03T04:19:18.107Z,7.30
2023-03-03T04:21:46.444Z,7.30
2023-03-03T04:24:14.680Z,7.20
2023-03-03T04:26:43.082Z,7.20
2023-03-03T04:29:12.881Z,7.20
2023-03-03T04:31:43.581Z,7.30
2023-03-03T04:34:13.642Z,7.40
2023-03-03T04:36:42.790Z,7.30
2023-03-03T04:39:11.124Z,7.30
2023-03-03T04:41:40.070Z,7.30
2023-03-03T04:44:08.528Z,7.30
2023-03-03T04:46:37.147Z,7.20
2023-03-03T04:49:09.786Z,7.20
2023-03-03T04:51:41.317Z,7.20
2023-03-03T04:54:10.196Z,7.20
2023-03-03T04:56:38.771Z,7.20
2023-03-03T04:59:07.494Z,7.20
2023-03-03T05:01:36.107Z,7.20
2023-03-03T05:04:05.270Z,7.20
2023-03-03T05:06:33.467Z,7.20
2023-03-03T05:09:03.868Z,7.20
2023-03-03T05:11:32.611Z,7.20
2023-03-03T05:14:00.977Z,7.20
2023-03-03T05:16:29.198Z,7.20
2023-03-03T05:18:57.557Z,7.10
2023-03-03T05:21:25.980Z,7.10
2023-03-03T05:23:54.259Z,7.10
2023-03-03T05:26:23.994Z,7.10
2023-03-03T05:28:52.382Z,7.10
2023-03-03T05:31:20.745Z,7.10
2023-03-03T05:33:49.024Z,7.10
2023-03-03T05:36:17.447Z,7.00
2023-03-03T05:38:45.788Z,7.00
2023-03-03T05:41:14.118Z,7.00
2023-03-03T05:43:43.924Z,7.00
2023-03-03T05:46:12.323Z,7.00
2023-03-03T05:48:40.685Z,7.00
2023-03-03T05:51:09.109Z,7.00
2023-03-03T05:53:37.546Z,7.10
2023-03-03T05:56:06.660Z,7.00
2023-03-03T05:58:35.008Z,7.00
2023-03-03T06:01:05.025Z,7.10
2023-03-03T06:03:33.484Z,7.00
2023-03-03T06:06:01.928Z,7.10
2023-03-03T06:08:32.487Z,7.10
2023-03-03T06:11:00.814Z,7.00
2023-03-03T06:13:29.196Z,7.10
2023-03-03T06:15:57.579Z,7.00
2023-03-03T06:18:27.333Z,7.00
2023-03-03T06:20:56.127Z,7.00
2023-03-03T06:23:24.473Z,7.10
2023-03-03T06:25:53.365Z,7.00
2023-03-03T06:28:21.684Z,7.00
2023-03-03T06:30:50.189Z,7.00
2023-03-03T06:33:18.504Z,7.00
2023-03-03T06:35:52.820Z,7.00
2023-03-03T06:38:21.706Z,7.00
2023-03-03T06:40:50.144Z,7.00
2023-03-03T06:43:18.381Z,6.90
2023-03-03T06:45:47.129Z,7.00
2023-03-03T06:48:15.520Z,7.00
2023-03-03T06:50:43.919Z,6.90
2023-03-03T06:53:15.617Z,6.90
2023-03-03T06:55:45.094Z,7.00
2023-03-03T06:58:14.970Z,6.90
2023-03-03T07:00:45.089Z,6.90
2023-03-03T07:03:17.054Z,6.90
2023-03-03T07:05:45.841Z,6.90
2023-03-03T07:08:18.213Z,6.90
2023-03-03T07:10:47.605Z,6.90
2023-03-03T07:13:23.148Z,6.90
2023-03-03T07:15:53.262Z,6.90
2023-03-03T07:18:34.441Z,6.90
2023-03-03T07:21:15.837Z,6.90
2023-03-03T07:23:47.578Z,6.90
2023-03-03T07:26:18.329Z,6.90
2023-03-03T07:28:56.173Z,6.90
2023-03-03T07:31:31.190Z,6.90
2023-03-03T07:34:01.312Z,6.90
2023-03-03T07:36:32.048Z,6.90
2023-03-03T07:39:03.252Z,6.90
2023-03-03T07:41:33.081Z,6.90
2023-03-03T07:44:06.801Z,6.90
2023-03-03T07:46:42.829Z,6.90
2023-03-03T07:49:23.104Z,7.00
2023-03-03T07:51:55.464Z,6.90
2023-03-03T07:54:37.397Z,7.00
2023-03-03T07:57:16.504Z,7.00
2023-03-03T07:59:49.198Z,7.00
2023-03-03T08:02:40.639Z,7.00
2023-03-03T08:05:31.211Z,7.00
2023-03-03T08:08:30.637Z,7.00
2023-03-03T08:11:01.220Z,7.00
2023-03-03T08:13:37.813Z,7.00
2023-03-03T08:16:31.505Z,7.10
2023-03-03T08:19:04.652Z,7.00
2023-03-03T08:21:34.331Z,7.10
2023-03-03T08:24:02.759Z,7.10
2023-03-03T08:26:32.398Z,7.10
2023-03-03T08:29:01.381Z,7.10
2023-03-03T08:31:40.759Z,7.10
2023-03-03T08:34:09.865Z,7.10
2023-03-03T08:36:38.342Z,7.10
2023-03-03T08:39:07.089Z,7.10
2023-03-03T08:41:36.760Z,7.30
2023-03-03T08:44:05.416Z,7.10
2023-03-03T08:46:33.934Z,7.10
2023-03-03T08:49:02.628Z,7.10
2023-03-03T08:51:31.109Z,7.10
2023-03-03T08:53:59.508Z,7.20
2023-03-03T08:56:30.738Z,7.10
2023-03-03T08:59:02.512Z,7.10
2023-03-03T09:01:31.964Z,7.20
2023-03-03T09:04:00.422Z,7.10
2023-03-03T09:06:28.943Z,7.10
2023-03-03T09:08:57.230Z,7.10
2023-03-03T09:11:27.596Z,7.20
2023-03-03T09:14:03.549Z,7.10
2023-03-03T09:16:38.487Z,7.10
2023-03-03T09:19:19.602Z,7.20
2023-03-03T09:21:47.887Z,7.10
2023-03-03T09:24:26.180Z,7.20
2023-03-03T09:26:55.003Z,7.20
2023-03-03T09:29:29.578Z,7.20
2023-03-03T09:32:01.183Z,7.20
2023-03-03T09:34:40.909Z,7.20
2023-03-03T09:37:21.943Z,7.20
2023-03-03T09:39:52.238Z,7.20
2023-03-03T09:42:45.356Z,7.20
2023-03-03T09:45:36.349Z,7.20
2023-03-03T09:48:31.498Z,7.20
2023-03-03T09:51:14.227Z,7.20
2023-03-03T09:54:03.451Z,7.20
2023-03-03T09:56:35.819Z,7.30
2023-03-03T09:59:28.224Z,7.30
2023-03-03T10:02:35.393Z,7.30
2023-03-03T10:05:20.314Z,7.30
2023-03-03T10:07:59.713Z,7.30
2023-03-03T10:10:46.281Z,7.30
2023-03-03T10:13:27.431Z,7.30
2023-03-03T10:16:12.896Z,7.30
2023-03-03T10:18:49.701Z,7.30
2023-03-03T10:21:25.533Z,7.30
2023-03-03T10:23:59.199Z,7.30
2023-03-03T10:26:45.800Z,7.30
2023-03-03T10:29:34.103Z,7.30
2023-03-03T10:32:29.842Z,7.30
2023-03-03T10:35:34.678Z,7.30
2023-03-03T10:38:33.256Z,7.40
2023-03-03T10:41:15.732Z,7.30
2023-03-03T10:43:55.902Z,7.40
2023-03-03T10:46:42.240Z,7.40
2023-03-03T10:49:27.857Z,7.40
2023-03-03T10:52:20.136Z,7.40
2023-03-03T10:55:17.462Z,7.40
2023-03-03T10:57:56.618Z,7.40
2023-03-03T11:00:28.612Z,7.40
2023-03-03T11:03:32.575Z,7.40
2023-03-03T11:06:03.136Z,7.40
2023-03-03T11:08:40.961Z,7.40
2023-03-03T11:11:18.988Z,7.40
2023-03-03T11:13:53.237Z,7.40
2023-03-03T11:16:49.697Z,7.40
2023-03-03T11:19:35.744Z,7.50
2023-03-03T11:22:16.003Z,7.50
2023-03-03T11:24:56.148Z,7.40
2023-03-03T11:28:03.825Z,7.50
2023-03-03T11:30:48.526Z,7.50
2023-03-03T11:33:21.946Z,7.50
2023-03-03T11:35:56.070Z,7.50
2023-03-03T11:38:41.818Z,7.50
2023-03-03T11:41:18.222Z,7.50
2023-03-03T11:43:51.436Z,7.50
2023-03-03T11:46:25.156Z,7.50
2023-03-03T11:49:00.230Z,7.10
2023-03-03T11:51:41.485Z,7.50
2023-03-03T11:54:16.578Z,7.50
2023-03-03T11:56:46.761Z,7.50
2023-03-03T11:59:38.064Z,7.50
2023-03-03T12:02:23.936Z,7.60
2023-03-03T12:04:57.033Z,7.60
2023-03-03T12:07:33.846Z,7.60
2023-03-03T12:10:15.088Z,7.60
2023-03-03T12:12:46.255Z,7.60
2023-03-03T12:15:28.807Z,7.60
2023-03-03T12:18:32.757Z,7.60
2023-03-03T12:21:25.688Z,7.60
2023-03-03T12:24:27.106Z,7.70
2023-03-03T12:27:03.296Z,7.60
2023-03-03T12:29:44.868Z,7.60
2023-03-03T12:32:24.639Z,7.70
2023-03-03T12:34:58.311Z,7.70
2023-03-03T12:37:48.101Z,7.70
2023-03-03T12:40:21.240Z,7.70
2023-03-03T12:43:02.145Z,7.70
2023-03-03T12:45:40.335Z,7.70
2023-03-03T12:48:18.093Z,7.70
2023-03-03T12:50:59.155Z,7.70
2023-03-03T12:53:41.588Z,7.70
2023-03-03T12:56:11.601Z,7.80
2023-03-03T12:58:50.494Z,7.80
2023-03-03T13:01:40.118Z,8.10
2023-03-03T13:04:16.777Z,7.80
2023-03-03T13:06:49.936Z,7.80
2023-03-03T13:09:30.237Z,7.80
2023-03-03T13:12:13.789Z,7.80
2023-03-03T13:14:49.918Z,7.80
2023-03-03T13:17:24.502Z,7.80
2023-03-03T13:20:00.195Z,7.80
2023-03-03T13:22:45.277Z,7.80
2023-03-03T13:25:37.821Z,7.80
2023-03-03T13:28:14.895Z,7.90
2023-03-03T13:30:49.341Z,7.90
2023-03-03T13:33:23.726Z,7.90
2023-03-03T13:35:57.842Z,7.90
2023-03-03T13:38:29.959Z,7.90
2023-03-03T13:41:05.288Z,7.90
2023-03-03T13:43:39.857Z,7.90
2023-03-03T13:46:16.424Z,7.90
2023-03-03T13:49:12.620Z,7.90
2023-03-03T13:51:50.033Z,8.00
2023-03-03T13:54:32.602Z,8.30
2023-03-03T13:57:20.024Z,8.00
2023-03-03T13:59:58.776Z,7.90
2023-03-03T14:02:49.699Z,7.90
2023-03-03T14:05:24.039Z,8.00
2023-03-03T14:08:00.134Z,8.10
2023-03-03T14:10:33.315Z,8.00
2023-03-03T14:13:05.888Z,8.00
2023-03-03T14:15:37.824Z,8.10
2023-03-03T14:18:27.886Z,8.10
2023-03-03T14:21:00.968Z,8.20
2023-03-03T14:23:36.098Z,8.20
2023-03-03T14:26:10.377Z,8.20
2023-03-03T14:28:45.336Z,8.30
2023-03-03T14:31:21.760Z,8.30
2023-03-03T14:34:02.117Z,8.40
2023-03-03T14:36:33.664Z,8.30
2023-03-03T14:39:03.604Z,8.30
2023-03-03T14:41:42.058Z,8.40
2023-03-03T14:44:27.693Z,8.40
2023-03-03T14:47:24.245Z,8.50
2023-03-03T14:49:54.722Z,8.50
2023-03-03T14:52:26.993Z,8.50
2023-03-03T14:54:58.256Z,8.50
2023-03-03T14:57:46.307Z,8.60
2023-03-03T15:00:36.392Z,8.60
2023-03-03T15:03:21.658Z,8.60
2023-03-03T15:05:50.919Z,8.60
2023-03-03T15:08:28.774Z,8.60
2023-03-03T15:11:14.103Z,8.60
2023-03-03T15:13:42.544Z,8.60
2023-03-03T15:16:13.363Z,8.60
2023-03-03T15:19:23.132Z,9.00
2023-03-03T15:22:02.526Z,8.60
2023-03-03T15:24:40.232Z,8.60
2023-03-03T15:27:15.123Z,8.70
2023-03-03T15:29:49.527Z,8.70
2023-03-03T15:32:25.508Z,8.70
2023-03-03T15:35:00.134Z,8.70
2023-03-03T15:37:44.588Z,8.70
2023-03-03T15:40:23.816Z,8.70
2023-03-03T15:43:03.202Z,8.80
2023-03-03T15:45:37.998Z,8.80
2023-03-03T15:48:16.934Z,8.80
2023-03-03T15:50:56.875Z,8.90
2023-03-03T15:53:57.029Z,8.90
2023-03-03T15:56:35.314Z,8.90
2023-03-03T15:59:46.953Z,8.90
2023-03-03T16:02:20.406Z,9.00
2023-03-03T16:05:00.430Z,9.00
2023-03-03T16:07:43.886Z,9.00
2023-03-03T16:10:22.151Z,9.00
2023-03-03T16:12:58.878Z,9.00
2023-03-03T16:15:43.923Z,9.00
2023-03-03T16:18:25.280Z,8.80
2023-03-03T16:21:09.857Z,9.10
2023-03-03T16:23:47.425Z,9.10
2023-03-03T16:26:27.941Z,9.10
2023-03-03T16:29:12.726Z,9.10
2023-03-03T16:31:49.943Z,9.00
2023-03-03T16:34:23.134Z,9.00
2023-03-03T16:37:02.675Z,9.00
2023-03-03T16:39:43.914Z,9.00
2023-03-03T16:42:22.037Z,9.00
2023-03-03T16:45:01.283Z,9.00
2023-03-03T16:47:45.668Z,9.00
2023-03-03T16:50:26.336Z,9.00
2023-03-03T16:53:00.501Z,8.90
2023-03-03T16:55:33.190Z,9.00
2023-03-03T16:58:14.534Z,9.00
2023-03-03T17:00:50.191Z,8.90
2023-03-03T17:03:45.484Z,8.90
2023-03-03T17:06:21.304Z,8.90
2023-03-03T17:09:32.942Z,8.90
2023-03-03T17:12:21.254Z,8.90
2023-03-03T17:15:34.489Z,8.90
2023-03-03T17:18:11.934Z,8.90
2023-03-03T17:20:50.188Z,8.90
2023-03-03T17:23:44.123Z,8.80
2023-03-03T17:26:39.779Z,8.80
2023-03-03T17:29:23.361Z,8.80
2023-03-03T17:31:59.691Z,8.80
2023-03-03T17:34:42.199Z,8.80
2023-03-03T17:37:26.148Z,8.80
2023-03-03T17:40:26.452Z,8.70
2023-03-03T17:43:03.152Z,8.70
2023-03-03T17:45:37.350Z,8.70
2023-03-03T17:48:25.163Z,8.70
2023-03-03T17:51:13.346Z,8.70
2023-03-03T17:54:14.449Z,8.70
2023-03-03T17:56:52.057Z,8.70
2023-03-03T17:59:37.818Z,8.70
2023-03-03T18:02:38.437Z,8.70
2023-03-03T18:05:27.994Z,8.70
2023-03-03T18:08:14.708Z,8.70
2023-03-03T18:11:17.830Z,8.60
2023-03-03T18:14:18.256Z,8.60
2023-03-03T18:17:16.826Z,8.60
2023-03-03T18:20:05.938Z,8.60
2023-03-03T18:22:42.646Z,8.60
2023-03-03T18:25:12.977Z,8.50
2023-03-03T18:27:44.050Z,8.50
2023-03-03T18:30:33.005Z,8.50
2023-03-03T18:33:13.068Z,8.20
2023-03-03T18:35:43.999Z,8.40
2023-03-03T18:38:39.409Z,8.40
2023-03-03T18:41:12.142Z,8.40
2023-03-03T18:43:53.954Z,8.40
2023-03-03T18:46:56.492Z,8.40
2023-03-03T18:49:52.638Z,8.70
2023-03-03T18:52:27.279Z,8.40
2023-03-03T18:55:23.635Z,8.40
2023-03-03T18:58:37.870Z,8.40
2023-03-03T19:01:39.201Z,8.40
2023-03-03T19:04:25.720Z,8.30
2023-03-03T19:07:24.753Z,8.30
2023-03-03T19:09:58.158Z,8.30
2023-03-03T19:12:47.895Z,8.30
2023-03-03T19:15:47.992Z,8.30
2023-03-03T19:18:19.906Z,8.30
2023-03-03T19:20:54.779Z,8.30
2023-03-03T19:23:27.452Z,8.30
2023-03-03T19:26:47.484Z,8.30
2023-03-03T19:29:37.405Z,8.30
2023-03-03T19:32:32.131Z,8.30
2023-03-03T19:35:17.060Z,8.70
2023-03-03T19:37:58.185Z,8.40
2023-03-03T19:40:30.983Z,8.70
2023-03-03T19:43:09.903Z,8.40
2023-03-03T19:46:03.446Z,8.30
2023-03-03T19:48:37.398Z,8.40
2023-03-03T19:51:14.022Z,8.40
2023-03-03T19:53:54.168Z,8.40
2023-03-03T19:56:32.377Z,8.40
2023-03-03T19:59:10.751Z,8.40
2023-03-03T20:01:49.412Z,8.30
2023-03-03T20:04:46.232Z,8.50
2023-03-03T20:07:29.155Z,8.30
2023-03-03T20:10:07.556Z,8.30
2023-03-03T20:12:53.299Z,8.30
2023-03-03T20:15:28.109Z,8.30
2023-03-03T20:18:09.684Z,8.30
2023-03-03T20:21:06.438Z,8.30
2023-03-03T20:23:45.369Z,8.30
2023-03-03T20:26:23.508Z,8.40
2023-03-03T20:29:24.575Z,8.40
2023-03-03T20:31:58.733Z,8.40
2023-03-03T20:34:38.599Z,8.40
2023-03-03T20:37:11.390Z,8.40
2023-03-03T20:40:00.221Z,8.40
2023-03-03T20:42:42.295Z,8.40
2023-03-03T20:45:32.709Z,8.20
2023-03-03T20:48:12.561Z,8.40
2023-03-03T20:50:54.258Z,8.40
2023-03-03T20:53:27.842Z,8.40
2023-03-03T20:56:04.148Z,8.40
2023-03-03T20:58:44.682Z,8.40
2023-03-03T21:01:15.742Z,8.40
2023-03-03T21:03:45.972Z,8.40
2023-03-03T21:06:16.478Z,8.40
2023-03-03T21:08:53.320Z,8.40
2023-03-03T21:11:23.655Z,8.40
2023-03-03T21:13:55.024Z,8.40
2023-03-03T21:16:32.793Z,8.40
2023-03-03T21:19:03.362Z,8.40
2023-03-03T21:21:33.739Z,8.40
2023-03-03T21:24:02.107Z,8.40
2023-03-03T21:26:52.433Z,8.40
2023-03-03T21:29:25.256Z,8.40
2023-03-03T21:31:55.287Z,8.40
2023-03-03T21:34:30.000Z,8.40
2023-03-03T21:36:59.380Z,8.40
2023-03-03T21:39:31.368Z,8.40
2023-03-03T21:42:02.732Z,8.30
2023-03-03T21:44:44.113Z,8.30
2023-03-03T21:47:14.830Z,8.30
2023-03-03T21:49:44.013Z,8.30
2023-03-03T21:52:14.406Z,8.30
2023-03-03T21:54:43.094Z,8.20
2023-03-03T21:57:11.938Z,8.20
2023-03-03T21:59:41.964Z,8.20
2023-03-03T22:02:10.498Z,8.20
2023-03-03T22:04:39.588Z,8.20
2023-03-03T22:07:08.273Z,8.20
2023-03-03T22:09:37.368Z,8.20
2023-03-03T22:12:06.408Z,8.00
2023-03-03T22:14:34.936Z,8.10
2023-03-03T22:17:04.868Z,8.10
2023-03-03T22:19:34.272Z,8.10
2023-03-03T22:22:02.696Z,8.20
2023-03-03T22:24:31.254Z,8.10
2023-03-03T22:26:59.620Z,8.20
2023-03-03T22:29:27.927Z,7.80
2023-03-03T22:31:56.229Z,8.20
2023-03-03T22:34:26.404Z,8.10
2023-03-03T22:36:54.990Z,8.10
2023-03-03T22:39:23.316Z,8.00
2023-03-03T22:41:51.684Z,8.00
2023-03-03T22:44:20.146Z,8.00
2023-03-03T22:46:48.486Z,8.00
2023-03-03T22:49:16.853Z,8.00
2023-03-03T22:51:46.570Z,8.00
2023-03-03T22:54:14.898Z,8.10
2023-03-03T22:56:43.411Z,8.10
2023-03-03T22:59:11.723Z,8.10
2023-03-03T23:01:40.000Z,8.10
2023-03-03T23:04:08.411Z,8.10
2023-03-03T23:06:36.892Z,8.10
2023-03-03T23:09:07.843Z,8.10
2023-03-03T23:11:36.148Z,8.10
2023-03-03T23:14:04.637Z,8.10
2023-03-03T23:16:32.998Z,8.10
2023-03-03T23:19:01.341Z,8.10
2023-03-03T23:21:29.690Z,8.20
2023-03-03T23:23:58.082Z,8.20
2023-03-03T23:26:27.814Z,8.20
2023-03-03T23:28:56.403Z,8.20
2023-03-03T23:31:25.568Z,8.20
2023-03-03T23:33:54.013Z,8.20
2023-03-03T23:36:22.398Z,8.20
2023-03-03T23:38:50.820Z,8.20
2023-03-03T23:41:19.384Z,8.20
2023-03-03T23:43:49.069Z,8.20
2023-03-03T23:46:18.553Z,8.20
2023-03-03T23:48:46.828Z,8.20
2023-03-03T23:51:15.163Z,8.10
2023-03-03T23:53:43.402Z,8.10
2023-03-03T23:56:11.891Z,8.10
2023-03-03T23:58:40.234Z,8.10
